sensor_id;sensor_type;location;lat;lon;timestamp;temperature;humidity
34985;DHT22;21190;58.750;17.004;2023-03-01T00:01:07;3.50;99.90
34985;DHT22;21190;58.750;17.004;2023-03-01T00:03:34;3.50;99.90
34985;DHT22;21190;58.750;17.004;2023-03-01T00:06:02;3.50;99.90
34985;DHT22;21190;58.750;17.004;2023-03-01T00:08:30;3.50;99.90
34985;DHT22;21190;58.750;17.004;2023-03-01T00:11:05;3.50;99.90
34985;DHT22;21190;58.750;17.004;2023-03-01T00:13:34;3.40;99.90
34985;DHT22;21190;58.750;17.004;2023-03-01T00:16:05;3.50;99.90
34985;DHT22;21190;58.750;17.004;2023-03-01T00:18:33;3.40;99.90
34985;DHT22;21190;58.750;17.004;2023-03-01T00:21:00;3.30;99.90
34985;DHT22;21190;58.750;17.004;2023-03-01T00:23:27;3.40;99.90
34985;DHT22;21190;58.750;17.004;2023-03-01T00:25:54;3.30;99.90
34985;DHT22;21190;58.750;17.004;2023-03-01T00:28:21;3.30;99.90
34985;DHT22;21190;58.750;17.004;2023-03-01T00:30:48;3.30;99.90
34985;DHT22;21190;58.750;17.004;2023-03-01T00:33:15;3.40;99.90
34985;DHT22;21190;58.750;17.004;2023-03-01T00:35:42;3.30;99.90
34985;DHT22;21190;58.750;17.004;2023-03-01T00:38:10;3.30;99.90
34985;DHT22;21190;58.750;17.004;2023-03-01T00:40:37;3.30;99.90
34985;DHT22;21190;58.750;17.004;2023-03-01T00:43:04;3.30;99.90
34985;DHT22;21190;58.750;17.004;2023-03-01T00:45:32;3.10;99.90
34985;DHT22;21190;58.750;17.004;2023-03-01T00:47:59;3.10;99.90
34985;DHT22;21190;58.750;17.004;2023-03-01T00:50:26;3.10;99.90
34985;DHT22;21190;58.750;17.004;2023-03-01T00:52:54;3.00;99.90
34985;DHT22;21190;58.750;17.004;2023-03-01T00:55:22;2.90;99.90
34985;DHT22;21190;58.750;17.004;2023-03-01T00:57:49;2.80;99.90
34985;DHT22;21190;58.750;17.004;2023-03-01T01:00:17;2.80;99.90
34985;DHT22;21190;58.750;17.004;2023-03-01T01:02:45;2.70;99.90
34985;DHT22;21190;58.750;17.004;2023-03-01T01:05:12;2.60;99.90
34985;DHT22;21190;58.750;17.004;2023-03-01T01:07:40;2.60;99.90
34985;DHT22;21190;58.750;17.004;2023-03-01T01:10:07;2.60;99.90
34985;DHT22;21190;58.750;17.004;2023-03-01T01:12:34;2.70;99.90
34985;DHT22;21190;58.750;17.004;2023-03-01T01:15:01;2.60;99.90
34985;DHT22;21190;58.750;17.004;2023-03-01T01:17:28;2.50;99.90
34985;DHT22;21190;58.750;17.004;2023-03-01T01:19:55;2.40;99.90
34985;DHT22;21190;58.750;17.004;2023-03-01T01:22:22;2.30;99.90
34985;DHT22;21190;58.750;17.004;2023-03-01T01:24:49;2.10;99.90
34985;DHT22;21190;58.750;17.004;2023-03-01T01:27:16;2.00;99.90
34985;DHT22;21190;58.750;17.004;2023-03-01T01:29:43;1.60;99.90
34985;DHT22;21190;58.750;17.004;2023-03-01T01:32:10;1.50;99.90
34985;DHT22;21190;58.750;17.004;2023-03-01T01:34:37;1.40;99.90
34985;DHT22;21190;58.750;17.004;2023-03-01T01:37:04;1.30;99.90
34985;DHT22;21190;58.750;17.004;2023-03-01T01:39:34;1.20;99.90
34985;DHT22;21190;58.750;17.004;2023-03-01T01:42:02;1.20;99.90
34985;DHT22;21190;58.750;17.004;2023-03-01T01:44:30;0.90;99.90
34985;DHT22;21190;58.750;17.004;2023-03-01T01:47:00;1.00;99.90
34985;DHT22;21190;58.750;17.004;2023-03-01T01:49:32;1.10;99.90
34985;DHT22;21190;58.750;17.004;2023-03-01T01:52:22;1.10;99.90
34985;DHT22;21190;58.750;17.004;2023-03-01T01:55:00;1.20;99.90
34985;DHT22;21190;58.750;17.004;2023-03-01T01:57:35;1.10;99.90
34985;DHT22;21190;58.750;17.004;2023-03-01T02:00:10;1.10;99.90
34985;DHT22;21190;58.750;17.004;2023-03-01T02:02:38;0.90;99.90
34985;DHT22;21190;58.750;17.004;2023-03-01T02:05:17;0.90;99.90
34985;DHT22;21190;58.750;17.004;2023-03-01T02:07:48;1.00;99.90
34985;DHT22;21190;58.750;17.004;2023-03-01T02:10:15;1.10;99.90
34985;DHT22;21190;58.750;17.004;2023-03-01T02:12:43;1.20;99.90
34985;DHT22;21190;58.750;17.004;2023-03-01T02:15:10;1.30;99.90
34985;DHT22;21190;58.750;17.004;2023-03-01T02:17:37;1.40;99.90
34985;DHT22;21190;58.750;17.004;2023-03-01T02:20:27;1.40;99.90
34985;DHT22;21190;58.750;17.004;2023-03-01T02:22:57;1.30;99.90
34985;DHT22;21190;58.750;17.004;2023-03-01T02:25:51;1.30;99.90
34985;DHT22;21190;58.750;17.004;2023-03-01T02:30:47;1.10;99.90
34985;DHT22;21190;58.750;17.004;2023-03-01T02:33:36;1.10;99.90
34985;DHT22;21190;58.750;17.004;2023-03-01T02:36:08;1.00;99.90
34985;DHT22;21190;58.750;17.004;2023-03-01T02:38:35;0.90;99.90
34985;DHT22;21190;58.750;17.004;2023-03-01T02:41:04;0.90;99.90
34985;DHT22;21190;58.750;17.004;2023-03-01T02:43:33;1.00;99.90
34985;DHT22;21190;58.750;17.004;2023-03-01T02:46:13;1.10;99.90
34985;DHT22;21190;58.750;17.004;2023-03-01T02:48:47;1.10;99.90
34985;DHT22;21190;58.750;17.004;2023-03-01T02:51:18;1.20;99.90
34985;DHT22;21190;58.750;17.004;2023-03-01T02:56:35;1.10;99.90
34985;DHT22;21190;58.750;17.004;2023-03-01T02:59:03;1.00;99.90
34985;DHT22;21190;58.750;17.004;2023-03-01T03:01:30;1.00;99.90
34985;DHT22;21190;58.750;17.004;2023-03-01T03:04:13;1.10;99.90
34985;DHT22;21190;58.750;17.004;2023-03-01T03:06:45;1.00;99.90
34985;DHT22;21190;58.750;17.004;2023-03-01T03:09:12;0.90;99.90
34985;DHT22;21190;58.750;17.004;2023-03-01T03:11:42;0.90;99.90
34985;DHT22;21190;58.750;17.004;2023-03-01T03:14:11;0.90;99.90
34985;DHT22;21190;58.750;17.004;2023-03-01T03:16:48;1.00;99.90
34985;DHT22;21190;58.750;17.004;2023-03-01T03:19:16;0.90;99.90
34985;DHT22;21190;58.750;17.004;2023-03-01T03:21:44;0.90;99.90
34985;DHT22;21190;58.750;17.004;2023-03-01T03:24:11;1.00;99.90
34985;DHT22;21190;58.750;17.004;2023-03-01T03:26:38;0.80;99.90
34985;DHT22;21190;58.750;17.004;2023-03-01T03:29:05;0.80;99.90
34985;DHT22;21190;58.750;17.004;2023-03-01T03:31:32;0.90;99.90
34985;DHT22;21190;58.750;17.004;2023-03-01T03:34:00;0.80;99.90
34985;DHT22;21190;58.750;17.004;2023-03-01T03:36:27;0.80;99.90
34985;DHT22;21190;58.750;17.004;2023-03-01T03:38:54;0.70;99.90
34985;DHT22;21190;58.750;17.004;2023-03-01T03:41:21;0.70;99.90
34985;DHT22;21190;58.750;17.004;2023-03-01T03:43:48;0.70;99.90
34985;DHT22;21190;58.750;17.004;2023-03-01T03:46:15;0.60;99.90
34985;DHT22;21190;58.750;17.004;2023-03-01T03:48:45;0.50;99.90
34985;DHT22;21190;58.750;17.004;2023-03-01T03:51:14;0.60;99.90
34985;DHT22;21190;58.750;17.004;2023-03-01T03:53:42;0.60;99.90
34985;DHT22;21190;58.750;17.004;2023-03-01T03:56:10;0.50;99.90
34985;DHT22;21190;58.750;17.004;2023-03-01T03:58:37;0.40;99.90
34985;DHT22;21190;58.750;17.004;2023-03-01T04:01:05;0.40;99.90
34985;DHT22;21190;58.750;17.004;2023-03-01T04:03:32;0.30;99.90
34985;DHT22;21190;58.750;17.004;2023-03-01T04:06:02;0.30;99.90
34985;DHT22;21190;58.750;17.004;2023-03-01T04:08:29;0.30;99.90
34985;DHT22;21190;58.750;17.004;2023-03-01T04:11:01;0.40;99.90
34985;DHT22;21190;58.750;17.004;2023-03-01T04:13:48;0.40;99.90
34985;DHT22;21190;58.750;17.004;2023-03-01T04:16:15;0.60;99.90
34985;DHT22;21190;58.750;17.004;2023-03-01T04:18:42;0.60;99.90
34985;DHT22;21190;58.750;17.004;2023-03-01T04:21:10;0.40;99.90
34985;DHT22;21190;58.750;17.004;2023-03-01T04:23:38;0.50;99.90
34985;DHT22;21190;58.750;17.004;2023-03-01T04:26:07;0.50;99.90
34985;DHT22;21190;58.750;17.004;2023-03-01T04:28:41;0.70;99.90
34985;DHT22;21190;58.750;17.004;2023-03-01T04:31:16;0.70;99.90
34985;DHT22;21190;58.750;17.004;2023-03-01T04:33:47;0.70;99.90
34985;DHT22;21190;58.750;17.004;2023-03-01T04:36:16;0.70;99.90
34985;DHT22;21190;58.750;17.004;2023-03-01T04:38:44;0.70;99.90
34985;DHT22;21190;58.750;17.004;2023-03-01T04:41:15;0.70;99.90
34985;DHT22;21190;58.750;17.004;2023-03-01T04:43:42;0.70;99.90
34985;DHT22;21190;58.750;17.004;2023-03-01T04:46:15;0.70;99.90
34985;DHT22;21190;58.750;17.004;2023-03-01T04:48:43;0.60;99.90
34985;DHT22;21190;58.750;17.004;2023-03-01T04:51:11;0.50;99.90
34985;DHT22;21190;58.750;17.004;2023-03-01T04:53:41;0.40;99.90
34985;DHT22;21190;58.750;17.004;2023-03-01T04:56:08;0.30;99.90
34985;DHT22;21190;58.750;17.004;2023-03-01T04:58:35;0.20;99.90
34985;DHT22;21190;58.750;17.004;2023-03-01T05:01:11;0.20;99.90
34985;DHT22;21190;58.750;17.004;2023-03-01T05:03:49;0.20;99.90
34985;DHT22;21190;58.750;17.004;2023-03-01T05:06:18;0.30;99.90
34985;DHT22;21190;58.750;17.004;2023-03-01T05:08:45;0.20;99.90
34985;DHT22;21190;58.750;17.004;2023-03-01T05:11:12;0.20;99.90
34985;DHT22;21190;58.750;17.004;2023-03-01T05:13:40;0.10;99.90
34985;DHT22;21190;58.750;17.004;2023-03-01T05:16:08;-0.10;99.90
34985;DHT22;21190;58.750;17.004;2023-03-01T05:18:39;-0.10;99.90
34985;DHT22;21190;58.750;17.004;2023-03-01T05:21:10;-0.20;99.90
34985;DHT22;21190;58.750;17.004;2023-03-01T05:23:37;-0.20;99.90
34985;DHT22;21190;58.750;17.004;2023-03-01T05:26:06;-0.20;99.90
34985;DHT22;21190;58.750;17.004;2023-03-01T05:28:37;-0.20;99.90
34985;DHT22;21190;58.750;17.004;2023-03-01T05:31:04;-0.20;99.90
34985;DHT22;21190;58.750;17.004;2023-03-01T05:33:40;-0.30;99.90
34985;DHT22;21190;58.750;17.004;2023-03-01T05:36:08;-0.40;99.90
34985;DHT22;21190;58.750;17.004;2023-03-01T05:38:36;-0.50;99.90
34985;DHT22;21190;58.750;17.004;2023-03-01T05:41:03;-0.40;99.90
34985;DHT22;21190;58.750;17.004;2023-03-01T05:43:31;-0.50;99.90
34985;DHT22;21190;58.750;17.004;2023-03-01T05:46:01;-0.50;99.90
34985;DHT22;21190;58.750;17.004;2023-03-01T05:48:28;-0.50;99.90
34985;DHT22;21190;58.750;17.004;2023-03-01T05:50:59;-0.50;99.90
34985;DHT22;21190;58.750;17.004;2023-03-01T05:53:27;-0.70;99.90
34985;DHT22;21190;58.750;17.004;2023-03-01T05:55:54;-0.70;99.90
34985;DHT22;21190;58.750;17.004;2023-03-01T05:58:21;-0.70;99.90
34985;DHT22;21190;58.750;17.004;2023-03-01T06:00:48;-0.80;99.90
34985;DHT22;21190;58.750;17.004;2023-03-01T06:03:21;-0.70;99.90
34985;DHT22;21190;58.750;17.004;2023-03-01T06:05:48;-0.80;99.90
34985;DHT22;21190;58.750;17.004;2023-03-01T06:08:15;-0.80;99.90
34985;DHT22;21190;58.750;17.004;2023-03-01T06:10:42;-0.70;99.90
34985;DHT22;21190;58.750;17.004;2023-03-01T06:13:09;-0.50;99.90
34985;DHT22;21190;58.750;17.004;2023-03-01T06:15:36;-0.50;99.90
34985;DHT22;21190;58.750;17.004;2023-03-01T06:18:03;-0.50;99.90
34985;DHT22;21190;58.750;17.004;2023-03-01T06:20:31;-0.50;99.90
34985;DHT22;21190;58.750;17.004;2023-03-01T06:22:58;-0.50;99.90
34985;DHT22;21190;58.750;17.004;2023-03-01T06:25:28;-0.50;99.90
34985;DHT22;21190;58.750;17.004;2023-03-01T06:27:55;-0.40;99.90
34985;DHT22;21190;58.750;17.004;2023-03-01T06:30:23;-0.40;99.90
34985;DHT22;21190;58.750;17.004;2023-03-01T06:32:51;-0.50;99.90
34985;DHT22;21190;58.750;17.004;2023-03-01T06:35:19;-0.50;99.90
34985;DHT22;21190;58.750;17.004;2023-03-01T06:37:47;-0.50;99.90
34985;DHT22;21190;58.750;17.004;2023-03-01T06:40:15;-0.40;99.90
34985;DHT22;21190;58.750;17.004;2023-03-01T06:42:47;-0.40;99.90
34985;DHT22;21190;58.750;17.004;2023-03-01T06:45:15;-0.20;99.90
34985;DHT22;21190;58.750;17.004;2023-03-01T06:47:42;-0.30;99.90
34985;DHT22;21190;58.750;17.004;2023-03-01T06:50:10;-0.40;99.90
34985;DHT22;21190;58.750;17.004;2023-03-01T06:52:37;-0.40;99.90
34985;DHT22;21190;58.750;17.004;2023-03-01T06:55:05;-0.40;99.90
34985;DHT22;21190;58.750;17.004;2023-03-01T06:57:32;-0.30;99.90
34985;DHT22;21190;58.750;17.004;2023-03-01T06:59:59;-0.20;99.90
34985;DHT22;21190;58.750;17.004;2023-03-01T07:02:26;-0.10;99.90
34985;DHT22;21190;58.750;17.004;2023-03-01T07:04:53;0.10;99.90
34985;DHT22;21190;58.750;17.004;2023-03-01T07:07:20;0.10;99.90
34985;DHT22;21190;58.750;17.004;2023-03-01T07:09:49;0.20;99.90
34985;DHT22;21190;58.750;17.004;2023-03-01T07:12:16;0.10;99.90
34985;DHT22;21190;58.750;17.004;2023-03-01T07:14:44;0.10;99.90
34985;DHT22;21190;58.750;17.004;2023-03-01T07:17:11;0.10;99.90
34985;DHT22;21190;58.750;17.004;2023-03-01T07:19:39;0.10;99.90
34985;DHT22;21190;58.750;17.004;2023-03-01T07:22:06;0.10;99.90
34985;DHT22;21190;58.750;17.004;2023-03-01T07:24:34;0.20;99.90
34985;DHT22;21190;58.750;17.004;2023-03-01T07:27:01;0.30;99.90
34985;DHT22;21190;58.750;17.004;2023-03-01T07:29:28;0.40;99.90
34985;DHT22;21190;58.750;17.004;2023-03-01T07:31:56;0.40;99.90
34985;DHT22;21190;58.750;17.004;2023-03-01T07:34:23;0.50;99.90
34985;DHT22;21190;58.750;17.004;2023-03-01T07:36:50;0.50;99.90
34985;DHT22;21190;58.750;17.004;2023-03-01T07:39:17;0.50;99.90
34985;DHT22;21190;58.750;17.004;2023-03-01T07:41:45;0.60;99.90
34985;DHT22;21190;58.750;17.004;2023-03-01T07:44:12;0.80;99.90
34985;DHT22;21190;58.750;17.004;2023-03-01T07:46:39;1.00;99.90
34985;DHT22;21190;58.750;17.004;2023-03-01T07:49:06;1.10;99.90
34985;DHT22;21190;58.750;17.004;2023-03-01T07:51:33;1.20;99.90
34985;DHT22;21190;58.750;17.004;2023-03-01T07:54:00;1.20;99.90
34985;DHT22;21190;58.750;17.004;2023-03-01T07:56:27;1.20;99.90
34985;DHT22;21190;58.750;17.004;2023-03-01T07:58:54;1.20;99.90
34985;DHT22;21190;58.750;17.004;2023-03-01T08:01:22;1.30;99.90
34985;DHT22;21190;58.750;17.004;2023-03-01T08:03:49;1.40;99.90
34985;DHT22;21190;58.750;17.004;2023-03-01T08:06:17;1.40;99.90
34985;DHT22;21190;58.750;17.004;2023-03-01T08:08:45;1.50;99.90
34985;DHT22;21190;58.750;17.004;2023-03-01T08:11:14;1.60;99.90
34985;DHT22;21190;58.750;17.004;2023-03-01T08:13:42;1.70;99.90
34985;DHT22;21190;58.750;17.004;2023-03-01T08:16:14;1.80;99.90
34985;DHT22;21190;58.750;17.004;2023-03-01T08:18:42;1.90;99.90
34985;DHT22;21190;58.750;17.004;2023-03-01T08:21:11;2.00;99.90
34985;DHT22;21190;58.750;17.004;2023-03-01T08:23:39;2.10;99.90
34985;DHT22;21190;58.750;17.004;2023-03-01T08:26:15;2.20;99.90
34985;DHT22;21190;58.750;17.004;2023-03-01T08:28:44;2.20;99.90
34985;DHT22;21190;58.750;17.004;2023-03-01T08:31:18;2.30;99.90
34985;DHT22;21190;58.750;17.004;2023-03-01T08:33:47;2.30;99.90
34985;DHT22;21190;58.750;17.004;2023-03-01T08:36:17;2.40;99.90
34985;DHT22;21190;58.750;17.004;2023-03-01T08:38:44;2.40;99.90
34985;DHT22;21190;58.750;17.004;2023-03-01T08:41:12;2.50;99.90
34985;DHT22;21190;58.750;17.004;2023-03-01T08:43:39;2.50;99.90
34985;DHT22;21190;58.750;17.004;2023-03-01T08:46:06;2.60;99.90
34985;DHT22;21190;58.750;17.004;2023-03-01T08:48:33;2.70;99.90
34985;DHT22;21190;58.750;17.004;2023-03-01T08:51:15;2.70;99.90
34985;DHT22;21190;58.750;17.004;2023-03-01T08:53:45;2.70;99.90
34985;DHT22;21190;58.750;17.004;2023-03-01T08:56:13;2.80;99.90
34985;DHT22;21190;58.750;17.004;2023-03-01T08:58:44;2.90;99.90
34985;DHT22;21190;58.750;17.004;2023-03-01T09:01:14;2.90;99.90
34985;DHT22;21190;58.750;17.004;2023-03-01T09:03:41;3.00;99.90
34985;DHT22;21190;58.750;17.004;2023-03-01T09:06:09;3.10;99.90
34985;DHT22;21190;58.750;17.004;2023-03-01T09:08:38;3.20;99.90
34985;DHT22;21190;58.750;17.004;2023-03-01T09:11:07;3.20;99.90
34985;DHT22;21190;58.750;17.004;2023-03-01T09:13:35;3.30;99.90
34985;DHT22;21190;58.750;17.004;2023-03-01T09:16:04;3.30;99.90
34985;DHT22;21190;58.750;17.004;2023-03-01T09:18:32;3.30;99.90
34985;DHT22;21190;58.750;17.004;2023-03-01T09:21:13;3.40;99.90
34985;DHT22;21190;58.750;17.004;2023-03-01T09:23:42;3.50;99.90
34985;DHT22;21190;58.750;17.004;2023-03-01T09:26:11;3.50;99.90
34985;DHT22;21190;58.750;17.004;2023-03-01T09:28:39;3.60;99.90
34985;DHT22;21190;58.750;17.004;2023-03-01T09:31:07;3.60;99.90
34985;DHT22;21190;58.750;17.004;2023-03-01T09:33:34;3.70;99.90
34985;DHT22;21190;58.750;17.004;2023-03-01T09:36:04;3.80;99.90
34985;DHT22;21190;58.750;17.004;2023-03-01T09:38:31;3.80;99.90
34985;DHT22;21190;58.750;17.004;2023-03-01T09:41:00;3.90;99.90
34985;DHT22;21190;58.750;17.004;2023-03-01T09:43:45;4.00;99.90
34985;DHT22;21190;58.750;17.004;2023-03-01T09:46:14;4.10;99.90
34985;DHT22;21190;58.750;17.004;2023-03-01T09:48:50;4.20;99.90
34985;DHT22;21190;58.750;17.004;2023-03-01T09:51:23;4.20;99.90
34985;DHT22;21190;58.750;17.004;2023-03-01T09:53:51;4.30;99.90
34985;DHT22;21190;58.750;17.004;2023-03-01T09:56:28;4.30;99.90
34985;DHT22;21190;58.750;17.004;2023-03-01T09:59:40;4.40;99.90
34985;DHT22;21190;58.750;17.004;2023-03-01T10:10:39;4.80;99.90
34985;DHT22;21190;58.750;17.004;2023-03-01T10:13:19;4.90;99.90
34985;DHT22;21190;58.750;17.004;2023-03-01T10:15:55;5.00;99.90
34985;DHT22;21190;58.750;17.004;2023-03-01T10:18:27;5.00;99.90
34985;DHT22;21190;58.750;17.004;2023-03-01T10:23:39;5.00;99.90
34985;DHT22;21190;58.750;17.004;2023-03-01T10:26:12;5.20;99.90
34985;DHT22;21190;58.750;17.004;2023-03-01T10:31:23;5.20;99.90
34985;DHT22;21190;58.750;17.004;2023-03-01T10:33:55;5.30;99.90
34985;DHT22;21190;58.750;17.004;2023-03-01T10:36:24;5.40;99.90
34985;DHT22;21190;58.750;17.004;2023-03-01T10:38:56;5.40;99.90
34985;DHT22;21190;58.750;17.004;2023-03-01T10:41:26;5.50;99.90
34985;DHT22;21190;58.750;17.004;2023-03-01T10:43:57;5.50;99.90
34985;DHT22;21190;58.750;17.004;2023-03-01T10:46:27;5.50;99.90
34985;DHT22;21190;58.750;17.004;2023-03-01T10:49:14;5.60;99.90
34985;DHT22;21190;58.750;17.004;2023-03-01T10:51:50;5.60;99.90
34985;DHT22;21190;58.750;17.004;2023-03-01T10:54:27;5.80;99.90
34985;DHT22;21190;58.750;17.004;2023-03-01T10:57:00;5.80;99.90
34985;DHT22;21190;58.750;17.004;2023-03-01T10:59:32;5.80;99.90
34985;DHT22;21190;58.750;17.004;2023-03-01T11:02:29;5.90;99.90
34985;DHT22;21190;58.750;17.004;2023-03-01T11:07:52;5.90;99.90
34985;DHT22;21190;58.750;17.004;2023-03-01T11:10:35;5.80;99.90
34985;DHT22;21190;58.750;17.004;2023-03-01T11:13:14;5.80;99.90
34985;DHT22;21190;58.750;17.004;2023-03-01T11:15:42;5.80;99.90
34985;DHT22;21190;58.750;17.004;2023-03-01T11:18:20;5.90;99.90
34985;DHT22;21190;58.750;17.004;2023-03-01T11:20:53;6.00;99.90
34985;DHT22;21190;58.750;17.004;2023-03-01T11:23:22;6.00;99.90
34985;DHT22;21190;58.750;17.004;2023-03-01T11:25:55;6.10;99.90
34985;DHT22;21190;58.750;17.004;2023-03-01T11:28:23;6.20;99.90
34985;DHT22;21190;58.750;17.004;2023-03-01T11:30:55;6.30;99.90
34985;DHT22;21190;58.750;17.004;2023-03-01T11:36:55;6.50;99.90
34985;DHT22;21190;58.750;17.004;2023-03-01T11:39:31;6.70;99.90
34985;DHT22;21190;58.750;17.004;2023-03-01T11:42:15;6.80;99.90
34985;DHT22;21190;58.750;17.004;2023-03-01T11:44:48;6.80;99.90
34985;DHT22;21190;58.750;17.004;2023-03-01T11:50:35;6.80;99.90
34985;DHT22;21190;58.750;17.004;2023-03-01T11:56:19;6.60;99.90
34985;DHT22;21190;58.750;17.004;2023-03-01T12:04:31;6.80;99.90
34985;DHT22;21190;58.750;17.004;2023-03-01T12:13:12;6.90;99.90
34985;DHT22;21190;58.750;17.004;2023-03-01T12:21:02;7.10;99.90
34985;DHT22;21190;58.750;17.004;2023-03-01T12:26:34;7.20;99.90
34985;DHT22;21190;58.750;17.004;2023-03-01T12:29:23;7.20;99.90
34985;DHT22;21190;58.750;17.004;2023-03-01T12:31:58;7.20;99.90
34985;DHT22;21190;58.750;17.004;2023-03-01T12:34:44;7.30;99.90
34985;DHT22;21190;58.750;17.004;2023-03-01T12:37:25;7.40;99.90
34985;DHT22;21190;58.750;17.004;2023-03-01T12:43:15;7.50;99.90
34985;DHT22;21190;58.750;17.004;2023-03-01T12:45:59;7.60;99.90
34985;DHT22;21190;58.750;17.004;2023-03-01T12:51:24;7.70;99.90
34985;DHT22;21190;58.750;17.004;2023-03-01T12:53:55;7.60;99.90
34985;DHT22;21190;58.750;17.004;2023-03-01T12:56:31;7.60;99.90
34985;DHT22;21190;58.750;17.004;2023-03-01T13:02:17;7.60;99.90
34985;DHT22;21190;58.750;17.004;2023-03-01T13:04:52;7.70;99.90
34985;DHT22;21190;58.750;17.004;2023-03-01T13:07:35;7.70;99.90
34985;DHT22;21190;58.750;17.004;2023-03-01T13:11:11;7.70;99.90
34985;DHT22;21190;58.750;17.004;2023-03-01T13:13:13;7.70;99.90
34985;DHT22;21190;58.750;17.004;2023-03-01T13:15:40;7.70;99.90
34985;DHT22;21190;58.750;17.004;2023-03-01T13:20:54;7.70;99.90
34985;DHT22;21190;58.750;17.004;2023-03-01T13:28:50;7.80;99.90
34985;DHT22;21190;58.750;17.004;2023-03-01T13:38:59;7.90;99.90
34985;DHT22;21190;58.750;17.004;2023-03-01T13:47:18;7.90;99.90
34985;DHT22;21190;58.750;17.004;2023-03-01T13:52:39;7.80;99.90
34985;DHT22;21190;58.750;17.004;2023-03-01T13:55:23;7.90;99.90
34985;DHT22;21190;58.750;17.004;2023-03-01T13:57:54;7.80;99.90
34985;DHT22;21190;58.750;17.004;2023-03-01T14:00:29;7.80;99.90
34985;DHT22;21190;58.750;17.004;2023-03-01T14:05:33;7.80;99.90
34985;DHT22;21190;58.750;17.004;2023-03-01T14:08:00;7.80;99.90
34985;DHT22;21190;58.750;17.004;2023-03-01T14:10:42;7.80;99.90
34985;DHT22;21190;58.750;17.004;2023-03-01T14:16:29;7.80;99.90
34985;DHT22;21190;58.750;17.004;2023-03-01T14:19:16;7.80;99.90
34985;DHT22;21190;58.750;17.004;2023-03-01T14:24:58;8.00;99.90
34985;DHT22;21190;58.750;17.004;2023-03-01T14:27:35;8.00;99.90
34985;DHT22;21190;58.750;17.004;2023-03-01T14:30:11;8.00;99.90
34985;DHT22;21190;58.750;17.004;2023-03-01T14:32:39;8.10;99.90
34985;DHT22;21190;58.750;17.004;2023-03-01T14:35:21;8.10;99.90
34985;DHT22;21190;58.750;17.004;2023-03-01T14:37:48;8.00;99.90
34985;DHT22;21190;58.750;17.004;2023-03-01T14:42:48;8.00;99.90
34985;DHT22;21190;58.750;17.004;2023-03-01T14:45:15;8.00;99.90
34985;DHT22;21190;58.750;17.004;2023-03-01T14:47:44;8.10;99.90
34985;DHT22;21190;58.750;17.004;2023-03-01T14:50:26;8.00;99.90
34985;DHT22;21190;58.750;17.004;2023-03-01T14:52:59;8.00;99.90
34985;DHT22;21190;58.750;17.004;2023-03-01T14:55:40;8.00;99.90
34985;DHT22;21190;58.750;17.004;2023-03-01T14:58:16;7.90;99.90
34985;DHT22;21190;58.750;17.004;2023-03-01T15:00:56;7.90;99.90
34985;DHT22;21190;58.750;17.004;2023-03-01T15:03:37;7.90;99.90
34985;DHT22;21190;58.750;17.004;2023-03-01T15:06:06;7.80;99.90
34985;DHT22;21190;58.750;17.004;2023-03-01T15:08:34;7.70;99.90
34985;DHT22;21190;58.750;17.004;2023-03-01T15:11:20;7.70;99.90
34985;DHT22;21190;58.750;17.004;2023-03-01T15:13:49;7.70;99.90
34985;DHT22;21190;58.750;17.004;2023-03-01T15:16:40;7.70;99.90
34985;DHT22;21190;58.750;17.004;2023-03-01T15:19:15;7.60;99.90
34985;DHT22;21190;58.750;17.004;2023-03-01T15:21:46;7.60;99.90
34985;DHT22;21190;58.750;17.004;2023-03-01T15:24:18;7.60;99.90
34985;DHT22;21190;58.750;17.004;2023-03-01T15:29:19;7.60;99.90
34985;DHT22;21190;58.750;17.004;2023-03-01T15:34:28;7.40;99.90
34985;DHT22;21190;58.750;17.004;2023-03-01T15:36:57;7.40;99.90
34985;DHT22;21190;58.750;17.004;2023-03-01T15:39:33;7.40;99.90
34985;DHT22;21190;58.750;17.004;2023-03-01T15:42:10;7.30;99.90
34985;DHT22;21190;58.750;17.004;2023-03-01T15:44:40;7.30;99.90
34985;DHT22;21190;58.750;17.004;2023-03-01T15:47:31;7.30;99.90
34985;DHT22;21190;58.750;17.004;2023-03-01T15:49:59;7.20;99.90
34985;DHT22;21190;58.750;17.004;2023-03-01T15:52:32;7.20;99.90
34985;DHT22;21190;58.750;17.004;2023-03-01T15:58:00;7.30;99.90
34985;DHT22;21190;58.750;17.004;2023-03-01T16:00:27;7.30;99.90
34985;DHT22;21190;58.750;17.004;2023-03-01T16:02:55;7.30;99.90
34985;DHT22;21190;58.750;17.004;2023-03-01T16:05:26;7.20;99.90
34985;DHT22;21190;58.750;17.004;2023-03-01T16:07:53;7.30;99.90
34985;DHT22;21190;58.750;17.004;2023-03-01T16:10:21;7.30;99.90
34985;DHT22;21190;58.750;17.004;2023-03-01T16:12:48;7.30;99.90
34985;DHT22;21190;58.750;17.004;2023-03-01T16:15:30;7.20;99.90
34985;DHT22;21190;58.750;17.004;2023-03-01T16:17:58;7.10;99.90
34985;DHT22;21190;58.750;17.004;2023-03-01T16:20:26;6.90;99.90
34985;DHT22;21190;58.750;17.004;2023-03-01T16:23:02;6.90;99.90
34985;DHT22;21190;58.750;17.004;2023-03-01T16:25:30;6.90;99.90
34985;DHT22;21190;58.750;17.004;2023-03-01T16:27:59;6.90;99.90
34985;DHT22;21190;58.750;17.004;2023-03-01T16:30:27;6.80;99.90
34985;DHT22;21190;58.750;17.004;2023-03-01T16:32:54;6.80;99.90
34985;DHT22;21190;58.750;17.004;2023-03-01T16:35:22;6.80;99.90
34985;DHT22;21190;58.750;17.004;2023-03-01T16:37:50;6.80;99.90
34985;DHT22;21190;58.750;17.004;2023-03-01T16:40:24;6.80;99.90
34985;DHT22;21190;58.750;17.004;2023-03-01T16:42:53;6.80;99.90
34985;DHT22;21190;58.750;17.004;2023-03-01T16:45:21;6.80;99.90
34985;DHT22;21190;58.750;17.004;2023-03-01T16:47:51;6.70;99.90
34985;DHT22;21190;58.750;17.004;2023-03-01T16:50:22;6.70;99.90
34985;DHT22;21190;58.750;17.004;2023-03-01T16:52:49;6.70;99.90
34985;DHT22;21190;58.750;17.004;2023-03-01T16:55:16;6.70;99.90
34985;DHT22;21190;58.750;17.004;2023-03-01T16:57:43;6.60;99.90
34985;DHT22;21190;58.750;17.004;2023-03-01T17:00:11;6.60;99.90
34985;DHT22;21190;58.750;17.004;2023-03-01T17:02:41;6.50;99.90
34985;DHT22;21190;58.750;17.004;2023-03-01T17:05:09;6.50;99.90
34985;DHT22;21190;58.750;17.004;2023-03-01T17:07:38;6.40;99.90
34985;DHT22;21190;58.750;17.004;2023-03-01T17:10:08;6.40;99.90
34985;DHT22;21190;58.750;17.004;2023-03-01T17:12:36;6.40;99.90
34985;DHT22;21190;58.750;17.004;2023-03-01T17:15:05;6.30;99.90
34985;DHT22;21190;58.750;17.004;2023-03-01T17:17:32;6.30;99.90
34985;DHT22;21190;58.750;17.004;2023-03-01T17:20:00;6.30;99.90
34985;DHT22;21190;58.750;17.004;2023-03-01T17:22:30;6.20;99.90
34985;DHT22;21190;58.750;17.004;2023-03-01T17:24:57;6.30;99.90
34985;DHT22;21190;58.750;17.004;2023-03-01T17:27:24;6.30;99.90
34985;DHT22;21190;58.750;17.004;2023-03-01T17:29:51;6.30;99.90
34985;DHT22;21190;58.750;17.004;2023-03-01T17:32:18;6.30;99.90
34985;DHT22;21190;58.750;17.004;2023-03-01T17:34:46;6.30;99.90
34985;DHT22;21190;58.750;17.004;2023-03-01T17:37:13;6.40;99.90